Shinka Maru — JD3630 — position and weather

sailwx.info

Track history (hours):
 
Tides and Currents Weather Stations Pressure Air Temp Water Temp Dewpoint Dewpoint Depression Visibility Wind Speed Wind Dir Waves Ship Positions

Shinka Maru

Last reported at 2018-Feb-20 22:56 UTC. Time now 2018-Feb-20 23:16 UTC.
Position N 34°25' E 138°33'.

Length 172 m; draft 6.9 m.

Type: Cargo ship. MMSI: 431005364.

Date/timePositionNaut miles runAvg speedWind from/ knotsBaromVisibWave heightAir tempDewpointWater temp
2018-Feb-20 22:56N 34°25' E 138°33'1020.2
2018-Feb-20 22:27N 34°22' E 138°21'1420.8
2018-Feb-20 21:46N 34°18' E 138°05'15018.0
2018-Feb-20 13:28N 33°42' E 135°10'920.6
2018-Feb-20 13:00N 33°49' E 135°02'1019.4
2018-Feb-20 12:31N 33°58' E 134°59'1019.8
2018-Feb-20 12:01N 34°08' E 134°58'1020.0
2018-Feb-20 11:31N 34°18' E 134°59'1019.3
2018-Feb-20 11:00N 34°26' E 135°05'1020.0
2018-Feb-20 10:30N 34°32' E 135°15'917.5
2018-Feb-20 10:00N 34°36' E 135°24'1 1.7
2018-Feb-20 09:30N 34°37' E 135°25'0 0.0
2018-Feb-20 08:59N 34°37' E 135°25'0 0.0
2018-Feb-20 08:29N 34°37' E 135°25'0 0.0
2018-Feb-20 07:59N 34°37' E 135°25'0 0.0
2018-Feb-20 07:29N 34°37' E 135°25'0 0.0
2018-Feb-20 06:59N 34°37' E 135°25'0 0.0
2018-Feb-20 06:29N 34°37' E 135°25'0 0.0
2018-Feb-20 05:59N 34°37' E 135°25'0 0.0
2018-Feb-20 05:29N 34°37' E 135°25'0 0.0
2018-Feb-20 04:59N 34°37' E 135°25'0 0.0
2018-Feb-20 04:29N 34°37' E 135°25'0 0.0
2018-Feb-20 04:01N 34°37' E 135°25'0 0.0
2018-Feb-20 03:30N 34°37' E 135°25'0 0.0
2018-Feb-20 03:00N 34°37' E 135°25'0 0.0
2018-Feb-20 02:31N 34°37' E 135°25'0 0.0
2018-Feb-20 02:01N 34°37' E 135°25'0 0.0
2018-Feb-20 01:31N 34°37' E 135°25'0 0.0
2018-Feb-20 01:01N 34°37' E 135°25'0 0.0
2018-Feb-20 00:31N 34°37' E 135°25'510.4
2018-Feb-20 00:00N 34°35' E 135°19'918.7
2018-Feb-19 23:31N 34°28' E 135°11'1019.1
2018-Feb-19 23:01N 34°21' E 135°03'918.0
2018-Feb-19 22:31N 34°13' E 134°59'918.4
2018-Feb-19 22:00N 34°04' E 134°58'918.0
2018-Feb-19 21:30N 33°55' E 134°59'816.2
2018-Feb-19 21:00N 33°47' E 135°03'1717.0
2018-Feb-19 20:00N 33°35' E 135°17'12916.3
2018-Feb-19 12:06N 34°15' E 137°44'217.6
2018-Feb-19 11:59N 34°16' E 137°46'817.2
2018-Feb-19 11:30N 34°18' E 137°56'1216.6
2018-Feb-19 10:46N 34°21' E 138°10'516.1
2018-Feb-19 10:26N 34°23' E 138°17'715.8
2018-Feb-19 09:58N 34°25' E 138°25'816.8
2018-Feb-19 09:29N 34°27' E 138°34'815.9
2018-Feb-19 09:00N 34°29' E 138°44'816.6
2018-Feb-19 08:31N 34°31' E 138°53'918.3
2018-Feb-19 08:01N 34°35' E 139°03'1119.5
2018-Feb-19 07:26N 34°44' E 139°11'818.8
2018-Feb-19 07:01N 34°50' E 139°16'918.8
2018-Feb-19 06:30N 34°56' E 139°25'918.8
2018-Feb-19 06:00N 35°02' E 139°35'919.0
2018-Feb-19 05:31N 35°07' E 139°44'815.8
2018-Feb-19 05:00N 35°15' E 139°46'713.3
2018-Feb-19 04:30N 35°21' E 139°42'816.1
2018-Feb-19 04:00N 35°28' E 139°48'713.4
2018-Feb-19 03:31N 35°35' E 139°48'4 7.4
2018-Feb-19 03:00N 35°38' E 139°46'0 0.0
2018-Feb-19 02:24N 35°38' E 139°46'0 0.0
2018-Feb-19 01:57N 35°38' E 139°46'0 0.0
2018-Feb-19 01:27N 35°38' E 139°46'0 0.0
2018-Feb-19 00:42N 35°38' E 139°46'0 0.0
2018-Feb-19 00:27N 35°38' E 139°46'0 0.0
2018-Feb-19 00:00N 35°38' E 139°46'0 0.0
2018-Feb-18 23:30N 35°38' E 139°46'0 0.0
2018-Feb-18 22:57N 35°38' E 139°46'0 0.0
2018-Feb-18 22:27N 35°38' E 139°46'0 0.0
2018-Feb-18 22:00N 35°38' E 139°46'3 6.3
2018-Feb-18 21:30N 35°35' E 139°48'714.4
2018-Feb-18 21:00N 35°28' E 139°51'815.2
2018-Feb-18 20:31N 35°22' E 139°45'611.9
2018-Feb-18 20:01N 35°16' E 139°46'714.3
2018-Feb-18 19:30N 35°09' E 139°46'1019.6
2018-Feb-18 19:00N 34°60' E 139°44'917.6
2018-Feb-18 18:29N 34°51' E 139°49'918.7
2018-Feb-18 17:59N 34°52' E 140°00'1020.4
2018-Feb-18 17:30N 34°57' E 140°10'  
2018-Feb-15 19:07N 41°39' E 141°34'516.2
2018-Feb-15 18:49N 41°35' E 141°35'616.2
2018-Feb-15 18:26N 41°28' E 141°36'39513.8
2018-Feb-14 13:53N 34°59' E 140°13'920.0
2018-Feb-14 13:26N 34°55' E 140°03'1418.3
2018-Feb-14 12:40N 34°54' E 139°46'420.0
2018-Feb-14 12:27N 34°57' E 139°44'818.3
2018-Feb-14 12:00N 35°06' E 139°44'816.4
2018-Feb-14 11:30N 35°14' E 139°46'612.7
2018-Feb-14 11:01N 35°19' E 139°43'714.6
2018-Feb-14 10:31N 35°26' E 139°45'815.1
2018-Feb-14 10:00N 35°32' E 139°51'713.7
2018-Feb-14 09:30N 35°38' E 139°46'0 0.3
2018-Feb-14 08:55N 35°38' E 139°46'0 0.0
2018-Feb-14 05:34N 35°38' E 139°46'0 0.2
2018-Feb-14 05:22N 35°38' E 139°46'0 0.0
2018-Feb-14 05:00N 35°38' E 139°46'0 0.5
2018-Feb-14 04:29N 35°38' E 139°46'715.4
2018-Feb-14 04:00N 35°32' E 139°52'816.4
2018-Feb-14 03:30N 35°25' E 139°47'713.4
2018-Feb-14 03:00N 35°19' E 139°44'612.9
2018-Feb-14 02:30N 35°12' E 139°47'917.2
2018-Feb-14 02:00N 35°04' E 139°44'918.0
2018-Feb-14 01:30N 34°59' E 139°35'1119.7
2018-Feb-14 00:57N 34°53' E 139°24'919.7
2018-Feb-14 00:30N 34°47' E 139°16'1119.6
2018-Feb-13 23:57N 34°39' E 139°06'818.9
2018-Feb-13 23:31N 34°33' E 138°59'1218.1
2018-Feb-13 22:51N 34°28' E 138°47'918.7
2018-Feb-13 22:22N 34°25' E 138°36'818.9
2018-Feb-13 21:57N 34°23' E 138°27'818.4
2018-Feb-13 21:30N 34°21' E 138°17'1219.1
2018-Feb-13 20:51N 34°18' E 138°03'14818.4
2018-Feb-13 12:49N 33°41' E 135°10'620.4
2018-Feb-13 12:30N 33°46' E 135°06'1020.7
2018-Feb-13 12:00N 33°55' E 134°60'1020.2
2018-Feb-13 11:30N 34°05' E 134°59'1020.5
2018-Feb-13 11:00N 34°15' E 134°59'1019.3
2018-Feb-13 10:30N 34°24' E 135°03'1019.5
2018-Feb-13 10:00N 34°30' E 135°11'918.8
2018-Feb-13 09:30N 34°36' E 135°21'3 6.7
2018-Feb-13 09:00N 34°37' E 135°25'0 0.0
2018-Feb-13 08:31N 34°37' E 135°25'0 0.0
2018-Feb-13 08:00N 34°37' E 135°25'0 0.0
2018-Feb-13 07:30N 34°37' E 135°25'0 0.0
2018-Feb-13 07:00N 34°37' E 135°25'0 0.0
2018-Feb-13 06:30N 34°37' E 135°25'0 0.0
2018-Feb-13 06:00N 34°37' E 135°25'0 0.0
2018-Feb-13 05:30N 34°37' E 135°25'0 0.0
2018-Feb-13 05:00N 34°37' E 135°25'0 0.0
2018-Feb-13 04:30N 34°37' E 135°25'0 0.0
2018-Feb-13 04:00N 34°37' E 135°25'0 0.0
2018-Feb-13 03:30N 34°37' E 135°25'0 0.0
2018-Feb-13 03:00N 34°37' E 135°25'0 0.0
2018-Feb-13 02:30N 34°37' E 135°25'0 0.0
2018-Feb-13 02:00N 34°37' E 135°25'0 0.0
2018-Feb-13 01:30N 34°37' E 135°25'0 0.0
2018-Feb-13 01:00N 34°37' E 135°25'0 0.0
2018-Feb-13 00:30N 34°37' E 135°25'612.9
2018-Feb-13 00:01N 34°34' E 135°18'917.4
2018-Feb-12 23:31N 34°28' E 135°10'917.8
2018-Feb-12 23:00N 34°21' E 135°03'816.8
2018-Feb-12 22:31N 34°13' E 134°59'917.4
2018-Feb-12 22:00N 34°05' E 134°60'917.3
2018-Feb-12 21:30N 33°56' E 134°60'917.2
2018-Feb-12 21:00N 33°48' E 135°02'916.9
2018-Feb-12 20:30N 33°41' E 135°09'916.6
2018-Feb-12 19:58N 33°35' E 135°17'816.0
2018-Feb-12 19:28N 33°30' E 135°24'14117.4
2018-Feb-12 11:23N 34°19' E 138°03'1117.2
2018-Feb-12 10:45N 34°22' E 138°15'517.0
2018-Feb-12 10:28N 34°23' E 138°21'917.1
2018-Feb-12 09:58N 34°25' E 138°31'817.2
2018-Feb-12 09:30N 34°28' E 138°40'917.1
2018-Feb-12 08:59N 34°30' E 138°51'816.2
2018-Feb-12 08:31N 34°33' E 138°59'816.3
2018-Feb-12 08:00N 34°38' E 139°07'1016.9
2018-Feb-12 07:24N 34°47' E 139°14'716.9
2018-Feb-12 07:01N 34°52' E 139°19'817.0
2018-Feb-12 06:30N 34°57' E 139°27'918.1
2018-Feb-12 06:00N 35°03' E 139°36'918.2
2018-Feb-12 05:30N 35°08' E 139°45'714.6
2018-Feb-12 05:01N 35°16' E 139°46'713.6
2018-Feb-12 04:31N 35°22' E 139°42'815.7
2018-Feb-12 04:01N 35°28' E 139°48'612.9
2018-Feb-12 03:31N 35°34' E 139°48'4 6.8
2018-Feb-12 02:53N 35°38' E 139°46'0 0.1
2018-Feb-12 02:30N 35°38' E 139°46'0 0.0
2018-Feb-11 21:54N 35°38' E 139°46'0 0.8
2018-Feb-11 21:30N 35°38' E 139°46'815.2
2018-Feb-11 21:00N 35°32' E 139°52'815.9
2018-Feb-11 20:30N 35°25' E 139°47'713.1
2018-Feb-11 20:01N 35°19' E 139°44'612.9
2018-Feb-11 19:30N 35°13' E 139°47'816.1
2018-Feb-11 19:00N 35°05' E 139°46'815.4
2018-Feb-11 18:27N 34°56' E 139°44'614.4
2018-Feb-11 18:01N 34°51' E 139°49'913.8
2018-Feb-11 17:20N 34°52' E 140°00'616.4
2018-Feb-11 16:59N 34°55' E 140°06'1217.9
2018-Feb-11 16:19N 35°01' E 140°18'  
Track history (hours):
 
Tides and Currents Weather Stations Pressure Air Temp Water Temp Dewpoint Dewpoint Depression Visibility Wind Speed Wind Dir Waves Ship Positions

Shinka Maru

Last reported at 2018-Feb-20 22:56 UTC. Time now 2018-Feb-20 23:16 UTC.
Position N 34°25' E 138°33'.

Length 172 m; draft 6.9 m.

Type: Cargo ship. MMSI: 431005364.

Date/timePositionNaut miles runAvg speedWind from/ knotsBaromVisibWave heightAir tempDewpointWater temp
2018-Feb-20 22:56N 34°25' E 138°33'1020.2
2018-Feb-20 22:27N 34°22' E 138°21'1420.8
2018-Feb-20 21:46N 34°18' E 138°05'15018.0
2018-Feb-20 13:28N 33°42' E 135°10'920.6
2018-Feb-20 13:00N 33°49' E 135°02'1019.4
2018-Feb-20 12:31N 33°58' E 134°59'1019.8
2018-Feb-20 12:01N 34°08' E 134°58'1020.0
2018-Feb-20 11:31N 34°18' E 134°59'1019.3
2018-Feb-20 11:00N 34°26' E 135°05'1020.0
2018-Feb-20 10:30N 34°32' E 135°15'917.5
2018-Feb-20 10:00N 34°36' E 135°24'1 1.7
2018-Feb-20 09:30N 34°37' E 135°25'0 0.0
2018-Feb-20 08:59N 34°37' E 135°25'0 0.0
2018-Feb-20 08:29N 34°37' E 135°25'0 0.0
2018-Feb-20 07:59N 34°37' E 135°25'0 0.0
2018-Feb-20 07:29N 34°37' E 135°25'0 0.0
2018-Feb-20 06:59N 34°37' E 135°25'0 0.0
2018-Feb-20 06:29N 34°37' E 135°25'0 0.0
2018-Feb-20 05:59N 34°37' E 135°25'0 0.0
2018-Feb-20 05:29N 34°37' E 135°25'0 0.0
2018-Feb-20 04:59N 34°37' E 135°25'0 0.0
2018-Feb-20 04:29N 34°37' E 135°25'0 0.0
2018-Feb-20 04:01N 34°37' E 135°25'0 0.0
2018-Feb-20 03:30N 34°37' E 135°25'0 0.0
2018-Feb-20 03:00N 34°37' E 135°25'0 0.0
2018-Feb-20 02:31N 34°37' E 135°25'0 0.0
2018-Feb-20 02:01N 34°37' E 135°25'0 0.0
2018-Feb-20 01:31N 34°37' E 135°25'0 0.0
2018-Feb-20 01:01N 34°37' E 135°25'0 0.0
2018-Feb-20 00:31N 34°37' E 135°25'510.4
2018-Feb-20 00:00N 34°35' E 135°19'918.7
2018-Feb-19 23:31N 34°28' E 135°11'1019.1
2018-Feb-19 23:01N 34°21' E 135°03'918.0
2018-Feb-19 22:31N 34°13' E 134°59'918.4
2018-Feb-19 22:00N 34°04' E 134°58'918.0
2018-Feb-19 21:30N 33°55' E 134°59'816.2
2018-Feb-19 21:00N 33°47' E 135°03'1717.0
2018-Feb-19 20:00N 33°35' E 135°17'12916.3
2018-Feb-19 12:06N 34°15' E 137°44'217.6
2018-Feb-19 11:59N 34°16' E 137°46'817.2
2018-Feb-19 11:30N 34°18' E 137°56'1216.6
2018-Feb-19 10:46N 34°21' E 138°10'516.1
2018-Feb-19 10:26N 34°23' E 138°17'715.8
2018-Feb-19 09:58N 34°25' E 138°25'816.8
2018-Feb-19 09:29N 34°27' E 138°34'815.9
2018-Feb-19 09:00N 34°29' E 138°44'816.6
2018-Feb-19 08:31N 34°31' E 138°53'918.3
2018-Feb-19 08:01N 34°35' E 139°03'1119.5
2018-Feb-19 07:26N 34°44' E 139°11'818.8
2018-Feb-19 07:01N 34°50' E 139°16'918.8
2018-Feb-19 06:30N 34°56' E 139°25'918.8
2018-Feb-19 06:00N 35°02' E 139°35'919.0
2018-Feb-19 05:31N 35°07' E 139°44'815.8
2018-Feb-19 05:00N 35°15' E 139°46'713.3
2018-Feb-19 04:30N 35°21' E 139°42'816.1
2018-Feb-19 04:00N 35°28' E 139°48'713.4
2018-Feb-19 03:31N 35°35' E 139°48'4 7.4
2018-Feb-19 03:00N 35°38' E 139°46'0 0.0
2018-Feb-19 02:24N 35°38' E 139°46'0 0.0
2018-Feb-19 01:57N 35°38' E 139°46'0 0.0
2018-Feb-19 01:27N 35°38' E 139°46'0 0.0
2018-Feb-19 00:42N 35°38' E 139°46'0 0.0
2018-Feb-19 00:27N 35°38' E 139°46'0 0.0
2018-Feb-19 00:00N 35°38' E 139°46'0 0.0
2018-Feb-18 23:30N 35°38' E 139°46'0 0.0
2018-Feb-18 22:57N 35°38' E 139°46'0 0.0
2018-Feb-18 22:27N 35°38' E 139°46'0 0.0
2018-Feb-18 22:00N 35°38' E 139°46'3 6.3
2018-Feb-18 21:30N 35°35' E 139°48'714.4
2018-Feb-18 21:00N 35°28' E 139°51'815.2
2018-Feb-18 20:31N 35°22' E 139°45'611.9
2018-Feb-18 20:01N 35°16' E 139°46'714.3
2018-Feb-18 19:30N 35°09' E 139°46'1019.6
2018-Feb-18 19:00N 34°60' E 139°44'917.6
2018-Feb-18 18:29N 34°51' E 139°49'918.7
2018-Feb-18 17:59N 34°52' E 140°00'1020.4
2018-Feb-18 17:30N 34°57' E 140°10'  
2018-Feb-15 19:07N 41°39' E 141°34'516.2
2018-Feb-15 18:49N 41°35' E 141°35'616.2
2018-Feb-15 18:26N 41°28' E 141°36'39513.8
2018-Feb-14 13:53N 34°59' E 140°13'920.0
2018-Feb-14 13:26N 34°55' E 140°03'1418.3
2018-Feb-14 12:40N 34°54' E 139°46'420.0
2018-Feb-14 12:27N 34°57' E 139°44'818.3
2018-Feb-14 12:00N 35°06' E 139°44'816.4
2018-Feb-14 11:30N 35°14' E 139°46'612.7
2018-Feb-14 11:01N 35°19' E 139°43'714.6
2018-Feb-14 10:31N 35°26' E 139°45'815.1
2018-Feb-14 10:00N 35°32' E 139°51'713.7
2018-Feb-14 09:30N 35°38' E 139°46'0 0.3
2018-Feb-14 08:55N 35°38' E 139°46'0 0.0
2018-Feb-14 05:34N 35°38' E 139°46'0 0.2
2018-Feb-14 05:22N 35°38' E 139°46'0 0.0
2018-Feb-14 05:00N 35°38' E 139°46'0 0.5
2018-Feb-14 04:29N 35°38' E 139°46'715.4
2018-Feb-14 04:00N 35°32' E 139°52'816.4
2018-Feb-14 03:30N 35°25' E 139°47'713.4
2018-Feb-14 03:00N 35°19' E 139°44'612.9
2018-Feb-14 02:30N 35°12' E 139°47'917.2
2018-Feb-14 02:00N 35°04' E 139°44'918.0
2018-Feb-14 01:30N 34°59' E 139°35'1119.7
2018-Feb-14 00:57N 34°53' E 139°24'919.7
2018-Feb-14 00:30N 34°47' E 139°16'1119.6
2018-Feb-13 23:57N 34°39' E 139°06'818.9
2018-Feb-13 23:31N 34°33' E 138°59'1218.1
2018-Feb-13 22:51N 34°28' E 138°47'918.7
2018-Feb-13 22:22N 34°25' E 138°36'818.9
2018-Feb-13 21:57N 34°23' E 138°27'818.4
2018-Feb-13 21:30N 34°21' E 138°17'1219.1
2018-Feb-13 20:51N 34°18' E 138°03'14818.4
2018-Feb-13 12:49N 33°41' E 135°10'620.4
2018-Feb-13 12:30N 33°46' E 135°06'1020.7
2018-Feb-13 12:00N 33°55' E 134°60'1020.2
2018-Feb-13 11:30N 34°05' E 134°59'1020.5
2018-Feb-13 11:00N 34°15' E 134°59'1019.3
2018-Feb-13 10:30N 34°24' E 135°03'1019.5
2018-Feb-13 10:00N 34°30' E 135°11'918.8
2018-Feb-13 09:30N 34°36' E 135°21'3 6.7
2018-Feb-13 09:00N 34°37' E 135°25'0 0.0
2018-Feb-13 08:31N 34°37' E 135°25'0 0.0
2018-Feb-13 08:00N 34°37' E 135°25'0 0.0
2018-Feb-13 07:30N 34°37' E 135°25'0 0.0
2018-Feb-13 07:00N 34°37' E 135°25'0 0.0
2018-Feb-13 06:30N 34°37' E 135°25'0 0.0
2018-Feb-13 06:00N 34°37' E 135°25'0 0.0
2018-Feb-13 05:30N 34°37' E 135°25'0 0.0
2018-Feb-13 05:00N 34°37' E 135°25'0 0.0
2018-Feb-13 04:30N 34°37' E 135°25'0 0.0
2018-Feb-13 04:00N 34°37' E 135°25'0 0.0
2018-Feb-13 03:30N 34°37' E 135°25'0 0.0
2018-Feb-13 03:00N 34°37' E 135°25'0 0.0
2018-Feb-13 02:30N 34°37' E 135°25'0 0.0
2018-Feb-13 02:00N 34°37' E 135°25'0 0.0
2018-Feb-13 01:30N 34°37' E 135°25'0 0.0
2018-Feb-13 01:00N 34°37' E 135°25'0 0.0
2018-Feb-13 00:30N 34°37' E 135°25'612.9
2018-Feb-13 00:01N 34°34' E 135°18'917.4
2018-Feb-12 23:31N 34°28' E 135°10'917.8
2018-Feb-12 23:00N 34°21' E 135°03'816.8
2018-Feb-12 22:31N 34°13' E 134°59'917.4
2018-Feb-12 22:00N 34°05' E 134°60'917.3
2018-Feb-12 21:30N 33°56' E 134°60'917.2
2018-Feb-12 21:00N 33°48' E 135°02'916.9
2018-Feb-12 20:30N 33°41' E 135°09'916.6
2018-Feb-12 19:58N 33°35' E 135°17'816.0
2018-Feb-12 19:28N 33°30' E 135°24'14117.4
2018-Feb-12 11:23N 34°19' E 138°03'1117.2
2018-Feb-12 10:45N 34°22' E 138°15'517.0
2018-Feb-12 10:28N 34°23' E 138°21'917.1
2018-Feb-12 09:58N 34°25' E 138°31'817.2
2018-Feb-12 09:30N 34°28' E 138°40'917.1
2018-Feb-12 08:59N 34°30' E 138°51'816.2
2018-Feb-12 08:31N 34°33' E 138°59'816.3
2018-Feb-12 08:00N 34°38' E 139°07'1016.9
2018-Feb-12 07:24N 34°47' E 139°14'716.9
2018-Feb-12 07:01N 34°52' E 139°19'817.0
2018-Feb-12 06:30N 34°57' E 139°27'918.1
2018-Feb-12 06:00N 35°03' E 139°36'918.2
2018-Feb-12 05:30N 35°08' E 139°45'714.6
2018-Feb-12 05:01N 35°16' E 139°46'713.6
2018-Feb-12 04:31N 35°22' E 139°42'815.7
2018-Feb-12 04:01N 35°28' E 139°48'612.9
2018-Feb-12 03:31N 35°34' E 139°48'4 6.8
2018-Feb-12 02:53N 35°38' E 139°46'0 0.1
2018-Feb-12 02:30N 35°38' E 139°46'0 0.0
2018-Feb-11 21:54N 35°38' E 139°46'0 0.8
2018-Feb-11 21:30N 35°38' E 139°46'815.2
2018-Feb-11 21:00N 35°32' E 139°52'815.9
2018-Feb-11 20:30N 35°25' E 139°47'713.1
2018-Feb-11 20:01N 35°19' E 139°44'612.9
2018-Feb-11 19:30N 35°13' E 139°47'816.1
2018-Feb-11 19:00N 35°05' E 139°46'815.4
2018-Feb-11 18:27N 34°56' E 139°44'614.4
2018-Feb-11 18:01N 34°51' E 139°49'913.8
2018-Feb-11 17:20N 34°52' E 140°00'616.4
2018-Feb-11 16:59N 34°55' E 140°06'1217.9
2018-Feb-11 16:19N 35°01' E 140°18'  

Dump ship's entire track history